sensor_id;sensor_type;location;lat;lon;timestamp;pressure;altitude;pressure_sealevel;temperature;humidity
16194;BME280;8204;53.582;10.080;2023-07-02T00:02:22;99148.25;;;17.80;100.00
16194;BME280;8204;53.582;10.080;2023-07-02T00:04:47;99142.38;;;17.78;100.00
16194;BME280;8204;53.582;10.080;2023-07-02T00:07:13;99146.88;;;17.78;100.00
16194;BME280;8204;53.582;10.080;2023-07-02T00:09:40;99145.53;;;17.75;100.00
16194;BME280;8204;53.582;10.080;2023-07-02T00:12:06;99139.91;;;17.72;100.00
16194;BME280;8204;53.582;10.080;2023-07-02T00:14:32;99133.56;;;17.73;100.00
16194;BME280;8204;53.582;10.080;2023-07-02T00:16:58;99135.06;;;17.69;100.00
16194;BME280;8204;53.582;10.080;2023-07-02T00:19:24;99135.66;;;17.71;100.00
16194;BME280;8204;53.582;10.080;2023-07-02T00:21:50;99134.50;;;17.67;100.00
16194;BME280;8204;53.582;10.080;2023-07-02T00:24:17;99127.38;;;17.67;100.00
16194;BME280;8204;53.582;10.080;2023-07-02T00:26:42;99121.91;;;17.57;100.00
16194;BME280;8204;53.582;10.080;2023-07-02T00:29:08;99108.13;;;17.56;100.00
16194;BME280;8204;53.582;10.080;2023-07-02T00:31:34;99106.28;;;17.56;100.00
16194;BME280;8204;53.582;10.080;2023-07-02T00:34:00;99102.97;;;17.49;100.00
16194;BME280;8204;53.582;10.080;2023-07-02T00:36:26;99083.72;;;17.54;100.00
16194;BME280;8204;53.582;10.080;2023-07-02T00:38:52;99086.13;;;17.55;100.00
16194;BME280;8204;53.582;10.080;2023-07-02T00:41:17;99087.72;;;17.56;100.00
16194;BME280;8204;53.582;10.080;2023-07-02T00:43:43;99090.69;;;17.59;100.00
16194;BME280;8204;53.582;10.080;2023-07-02T00:46:19;99081.66;;;17.56;100.00
16194;BME280;8204;53.582;10.080;2023-07-02T00:48:53;99076.88;;;17.57;100.00
16194;BME280;8204;53.582;10.080;2023-07-02T00:51:23;99078.81;;;17.62;100.00
16194;BME280;8204;53.582;10.080;2023-07-02T00:53:51;99087.72;;;17.56;100.00
16194;BME280;8204;53.582;10.080;2023-07-02T00:56:17;99088.56;;;17.57;100.00
16194;BME280;8204;53.582;10.080;2023-07-02T00:58:47;99081.13;;;17.58;100.00
16194;BME280;8204;53.582;10.080;2023-07-02T01:01:18;99066.78;;;17.55;100.00
16194;BME280;8204;53.582;10.080;2023-07-02T01:03:59;99075.63;;;17.60;100.00
16194;BME280;8204;53.582;10.080;2023-07-02T01:06:26;99074.47;;;17.56;100.00
16194;BME280;8204;53.582;10.080;2023-07-02T01:08:59;99076.88;;;17.57;100.00
16194;BME280;8204;53.582;10.080;2023-07-02T01:11:46;99068.47;;;17.60;100.00
16194;BME280;8204;53.582;10.080;2023-07-02T01:14:38;99068.00;;;17.63;100.00
16194;BME280;8204;53.582;10.080;2023-07-02T01:17:05;99081.13;;;17.58;100.00
16194;BME280;8204;53.582;10.080;2023-07-02T01:19:49;99069.50;;;17.59;100.00
16194;BME280;8204;53.582;10.080;2023-07-02T01:22:18;99074.56;;;17.61;100.00
16194;BME280;8204;53.582;10.080;2023-07-02T01:24:44;99074.81;;;17.59;100.00
16194;BME280;8204;53.582;10.080;2023-07-02T01:27:12;99088.03;;;17.59;100.00
16194;BME280;8204;53.582;10.080;2023-07-02T01:29:38;99086.22;;;17.60;100.00
16194;BME280;8204;53.582;10.080;2023-07-02T01:32:04;99072.16;;;17.59;100.00
16194;BME280;8204;53.582;10.080;2023-07-02T01:34:29;99076.56;;;17.54;100.00
16194;BME280;8204;53.582;10.080;2023-07-02T01:36:54;99062.84;;;17.57;100.00
16194;BME280;8204;53.582;10.080;2023-07-02T01:39:20;99058.66;;;17.61;100.00
16194;BME280;8204;53.582;10.080;2023-07-02T01:41:50;99069.75;;;17.58;100.00
16194;BME280;8204;53.582;10.080;2023-07-02T01:44:16;99066.59;;;17.61;100.00
16194;BME280;8204;53.582;10.080;2023-07-02T01:46:42;99084.59;;;17.59;100.00
16194;BME280;8204;53.582;10.080;2023-07-02T01:49:08;99077.38;;;17.55;100.00
16194;BME280;8204;53.582;10.080;2023-07-02T01:51:33;99064.94;;;17.55;100.00
16194;BME280;8204;53.582;10.080;2023-07-02T01:53:59;99069.75;;;17.58;100.00
16194;BME280;8204;53.582;10.080;2023-07-02T01:56:25;99073.69;;;17.56;100.00
16194;BME280;8204;53.582;10.080;2023-07-02T01:58:51;99067.84;;;17.54;100.00
16194;BME280;8204;53.582;10.080;2023-07-02T02:01:16;99083.97;;;17.52;100.00
16194;BME280;8204;53.582;10.080;2023-07-02T02:03:42;99077.84;;;17.52;100.00
16194;BME280;8204;53.582;10.080;2023-07-02T02:06:08;99071.25;;;17.54;100.00
16194;BME280;8204;53.582;10.080;2023-07-02T02:08:34;99061.19;;;17.51;100.00
16194;BME280;8204;53.582;10.080;2023-07-02T02:10:59;99063.81;;;17.51;100.00
16194;BME280;8204;53.582;10.080;2023-07-02T02:13:26;99061.25;;;17.56;100.00
16194;BME280;8204;53.582;10.080;2023-07-02T02:15:51;99074.16;;;17.53;100.00
16194;BME280;8204;53.582;10.080;2023-07-02T02:18:17;99071.06;;;17.56;100.00
16194;BME280;8204;53.582;10.080;2023-07-02T02:20:42;99082.69;;;17.55;100.00
16194;BME280;8204;53.582;10.080;2023-07-02T02:23:08;99085.59;;;17.53;100.00
16194;BME280;8204;53.582;10.080;2023-07-02T02:25:33;99080.81;;;17.55;100.00
16194;BME280;8204;53.582;10.080;2023-07-02T02:27:59;99082.63;;;17.50;100.00
16194;BME280;8204;53.582;10.080;2023-07-02T02:30:24;99101.38;;;17.48;100.00
16194;BME280;8204;53.582;10.080;2023-07-02T02:32:49;99092.38;;;17.49;100.00
16194;BME280;8204;53.582;10.080;2023-07-02T02:35:15;99085.00;;;17.51;100.00
16194;BME280;8204;53.582;10.080;2023-07-02T02:37:40;99084.84;;;17.41;100.00
16194;BME280;8204;53.582;10.080;2023-07-02T02:40:07;99081.34;;;17.36;100.00
16194;BME280;8204;53.582;10.080;2023-07-02T02:42:34;99073.53;;;17.46;100.00
16194;BME280;8204;53.582;10.080;2023-07-02T02:44:59;99094.31;;;17.37;100.00
16194;BME280;8204;53.582;10.080;2023-07-02T02:47:24;99098.97;;;17.47;100.00
16194;BME280;8204;53.582;10.080;2023-07-02T02:49:50;99096.97;;;17.37;100.00
16194;BME280;8204;53.582;10.080;2023-07-02T02:52:15;99106.53;;;17.38;100.00
16194;BME280;8204;53.582;10.080;2023-07-02T02:54:41;99105.97;;;17.36;100.00
16194;BME280;8204;53.582;10.080;2023-07-02T02:57:06;99127.38;;;17.35;100.00
16194;BME280;8204;53.582;10.080;2023-07-02T02:59:32;99119.84;;;17.27;100.00
16194;BME280;8204;53.582;10.080;2023-07-02T03:01:58;99118.56;;;17.29;100.00
16194;BME280;8204;53.582;10.080;2023-07-02T03:04:23;99117.28;;;17.32;100.00
16194;BME280;8204;53.582;10.080;2023-07-02T03:06:50;99126.03;;;17.32;100.00
16194;BME280;8204;53.582;10.080;2023-07-02T03:09:16;99125.13;;;17.27;100.00
16194;BME280;8204;53.582;10.080;2023-07-02T03:11:42;99127.44;;;17.23;100.00
16194;BME280;8204;53.582;10.080;2023-07-02T03:14:07;99122.38;;;17.22;100.00
16194;BME280;8204;53.582;10.080;2023-07-02T03:16:33;99141.84;;;17.27;100.00
16194;BME280;8204;53.582;10.080;2023-07-02T03:18:59;99119.84;;;17.27;100.00
16194;BME280;8204;53.582;10.080;2023-07-02T03:21:24;99117.88;;;17.22;100.00
16194;BME280;8204;53.582;10.080;2023-07-02T03:23:50;99125.50;;;17.19;100.00
16194;BME280;8204;53.582;10.080;2023-07-02T03:26:15;99138.41;;;17.15;100.00
16194;BME280;8204;53.582;10.080;2023-07-02T03:28:40;99126.69;;;17.11;100.00
16194;BME280;8204;53.582;10.080;2023-07-02T03:31:06;99114.81;;;17.14;100.00
16194;BME280;8204;53.582;10.080;2023-07-02T03:33:32;99118.50;;;17.13;100.00
16194;BME280;8204;53.582;10.080;2023-07-02T03:35:58;99132.66;;;17.18;100.00
16194;BME280;8204;53.582;10.080;2023-07-02T03:38:23;99140.59;;;17.18;100.00
16194;BME280;8204;53.582;10.080;2023-07-02T03:40:49;99137.38;;;17.16;100.00
16194;BME280;8204;53.582;10.080;2023-07-02T03:43:15;99140.97;;;17.10;100.00
16194;BME280;8204;53.582;10.080;2023-07-02T03:45:40;99147.09;;;17.11;100.00
16194;BME280;8204;53.582;10.080;2023-07-02T03:48:06;99132.31;;;17.15;100.00
16194;BME280;8204;53.582;10.080;2023-07-02T03:50:32;99142.91;;;17.15;100.00
16194;BME280;8204;53.582;10.080;2023-07-02T03:52:58;99149.94;;;17.09;100.00
16194;BME280;8204;53.582;10.080;2023-07-02T03:55:23;99164.09;;;17.15;100.00
16194;BME280;8204;53.582;10.080;2023-07-02T03:57:48;99167.75;;;17.14;100.00
16194;BME280;8204;53.582;10.080;2023-07-02T04:00:14;99177.06;;;17.16;100.00
16194;BME280;8204;53.582;10.080;2023-07-02T04:02:39;99195.97;;;17.08;100.00
16194;BME280;8204;53.582;10.080;2023-07-02T04:05:06;99192.50;;;17.19;100.00
16194;BME280;8204;53.582;10.080;2023-07-02T04:07:31;99198.97;;;17.12;100.00
16194;BME280;8204;53.582;10.080;2023-07-02T04:09:56;99206.44;;;17.15;100.00
16194;BME280;8204;53.582;10.080;2023-07-02T04:12:22;99218.38;;;17.17;100.00
16194;BME280;8204;53.582;10.080;2023-07-02T04:14:48;99219.44;;;17.16;100.00
16194;BME280;8204;53.582;10.080;2023-07-02T04:17:13;99229.94;;;17.11;100.00
16194;BME280;8204;53.582;10.080;2023-07-02T04:19:38;99236.59;;;17.14;100.00
16194;BME280;8204;53.582;10.080;2023-07-02T04:22:04;99248.53;;;17.16;100.00
16194;BME280;8204;53.582;10.080;2023-07-02T04:24:29;99235.88;;;17.18;100.00
16194;BME280;8204;53.582;10.080;2023-07-02T04:26:55;99250.66;;;17.14;100.00
16194;BME280;8204;53.582;10.080;2023-07-02T04:29:20;99265.00;;;17.18;100.00
16194;BME280;8204;53.582;10.080;2023-07-02T04:31:46;99266.63;;;17.19;100.00
16194;BME280;8204;53.582;10.080;2023-07-02T04:34:11;99292.28;;;17.19;100.00
16194;BME280;8204;53.582;10.080;2023-07-02T04:36:36;99277.22;;;17.19;100.00
16194;BME280;8204;53.582;10.080;2023-07-02T04:39:02;99282.59;;;17.24;100.00
16194;BME280;8204;53.582;10.080;2023-07-02T04:41:28;99285.69;;;17.21;100.00
16194;BME280;8204;53.582;10.080;2023-07-02T04:43:55;99290.91;;;17.16;100.00
16194;BME280;8204;53.582;10.080;2023-07-02T04:46:20;99288.34;;;17.21;100.00
16194;BME280;8204;53.582;10.080;2023-07-02T04:48:45;99299.63;;;17.28;100.00
16194;BME280;8204;53.582;10.080;2023-07-02T04:51:11;99316.59;;;17.27;100.00
16194;BME280;8204;53.582;10.080;2023-07-02T04:53:36;99345.00;;;17.20;100.00
16194;BME280;8204;53.582;10.080;2023-07-02T04:56:03;99337.84;;;17.21;100.00
16194;BME280;8204;53.582;10.080;2023-07-02T04:58:28;99362.59;;;17.26;100.00
16194;BME280;8204;53.582;10.080;2023-07-02T05:00:54;99360.97;;;17.25;100.00
16194;BME280;8204;53.582;10.080;2023-07-02T05:03:19;99351.34;;;17.19;100.00
16194;BME280;8204;53.582;10.080;2023-07-02T05:05:45;99331.78;;;17.20;100.00
16194;BME280;8204;53.582;10.080;2023-07-02T05:08:10;99344.66;;;17.28;100.00
16194;BME280;8204;53.582;10.080;2023-07-02T05:10:35;99342.25;;;17.27;100.00
16194;BME280;8204;53.582;10.080;2023-07-02T05:13:01;99342.13;;;17.33;100.00
16194;BME280;8204;53.582;10.080;2023-07-02T05:15:26;99375.97;;;17.31;100.00
16194;BME280;8204;53.582;10.080;2023-07-02T05:17:51;99359.63;;;17.34;100.00
16194;BME280;8204;53.582;10.080;2023-07-02T05:20:17;99378.25;;;17.39;100.00
16194;BME280;8204;53.582;10.080;2023-07-02T05:22:42;99378.59;;;17.43;100.00
16194;BME280;8204;53.582;10.080;2023-07-02T05:25:08;99406.69;;;17.44;100.00
16194;BME280;8204;53.582;10.080;2023-07-02T05:27:34;99392.03;;;17.41;100.00
16194;BME280;8204;53.582;10.080;2023-07-02T05:29:59;99383.88;;;17.43;100.00
16194;BME280;8204;53.582;10.080;2023-07-02T05:32:25;99377.56;;;17.44;100.00
16194;BME280;8204;53.582;10.080;2023-07-02T05:34:50;99396.88;;;17.44;100.00
16194;BME280;8204;53.582;10.080;2023-07-02T05:37:16;99423.38;;;17.44;100.00
16194;BME280;8204;53.582;10.080;2023-07-02T05:39:41;99438.81;;;17.47;100.00
16194;BME280;8204;53.582;10.080;2023-07-02T05:42:07;99431.50;;;17.54;100.00
16194;BME280;8204;53.582;10.080;2023-07-02T05:44:32;99437.88;;;17.53;100.00
16194;BME280;8204;53.582;10.080;2023-07-02T05:46:57;99448.13;;;17.50;100.00
16194;BME280;8204;53.582;10.080;2023-07-02T05:49:23;99459.41;;;17.45;100.00
16194;BME280;8204;53.582;10.080;2023-07-02T05:51:48;99447.41;;;17.54;100.00
16194;BME280;8204;53.582;10.080;2023-07-02T05:54:13;99435.66;;;17.61;100.00
16194;BME280;8204;53.582;10.080;2023-07-02T05:56:39;99467.44;;;17.61;100.00
16194;BME280;8204;53.582;10.080;2023-07-02T05:59:04;99462.13;;;17.61;100.00
16194;BME280;8204;53.582;10.080;2023-07-02T06:01:30;99446.94;;;17.57;100.00
16194;BME280;8204;53.582;10.080;2023-07-02T06:03:55;99444.72;;;17.65;100.00
16194;BME280;8204;53.582;10.080;2023-07-02T06:06:21;99442.16;;;17.70;100.00
16194;BME280;8204;53.582;10.080;2023-07-02T06:08:48;99444.25;;;17.80;100.00
16194;BME280;8204;53.582;10.080;2023-07-02T06:11:14;99444.00;;;17.81;100.00
16194;BME280;8204;53.582;10.080;2023-07-02T06:13:40;99460.22;;;17.85;100.00
16194;BME280;8204;53.582;10.080;2023-07-02T06:16:06;99479.91;;;17.89;100.00
16194;BME280;8204;53.582;10.080;2023-07-02T06:18:31;99481.69;;;18.00;100.00
16194;BME280;8204;53.582;10.080;2023-07-02T06:20:57;99497.53;;;17.95;100.00
16194;BME280;8204;53.582;10.080;2023-07-02T06:23:22;99492.22;;;17.95;100.00
16194;BME280;8204;53.582;10.080;2023-07-02T06:25:48;99507.75;;;18.03;100.00
16194;BME280;8204;53.582;10.080;2023-07-02T06:28:13;99527.44;;;18.07;100.00
16194;BME280;8204;53.582;10.080;2023-07-02T06:30:39;99526.97;;;18.10;100.00
16194;BME280;8204;53.582;10.080;2023-07-02T06:33:04;99539.66;;;18.08;100.00
16194;BME280;8204;53.582;10.080;2023-07-02T06:35:30;99540.03;;;18.00;100.00
16194;BME280;8204;53.582;10.080;2023-07-02T06:37:55;99533.31;;;18.09;100.00
16194;BME280;8204;53.582;10.080;2023-07-02T06:40:21;99533.91;;;18.11;100.00
16194;BME280;8204;53.582;10.080;2023-07-02T06:42:47;99532.50;;;18.20;100.00
16194;BME280;8204;53.582;10.080;2023-07-02T06:45:13;99566.50;;;18.23;100.00
16194;BME280;8204;53.582;10.080;2023-07-02T06:47:38;99567.66;;;18.27;100.00
16194;BME280;8204;53.582;10.080;2023-07-02T06:50:04;99616.06;;;18.33;100.00
16194;BME280;8204;53.582;10.080;2023-07-02T06:52:30;99590.69;;;18.37;100.00
16194;BME280;8204;53.582;10.080;2023-07-02T06:54:55;99566.31;;;18.40;100.00
16194;BME280;8204;53.582;10.080;2023-07-02T06:57:20;99578.47;;;18.36;100.00
16194;BME280;8204;53.582;10.080;2023-07-02T06:59:46;99589.25;;;18.46;100.00
16194;BME280;8204;53.582;10.080;2023-07-02T07:02:11;99614.03;;;18.52;100.00
16194;BME280;8204;53.582;10.080;2023-07-02T07:04:37;99625.31;;;18.59;100.00
16194;BME280;8204;53.582;10.080;2023-07-02T07:07:03;99623.25;;;18.61;100.00
16194;BME280;8204;53.582;10.080;2023-07-02T07:09:29;99646.88;;;18.62;100.00
16194;BME280;8204;53.582;10.080;2023-07-02T07:11:55;99624.13;;;18.66;100.00
16194;BME280;8204;53.582;10.080;2023-07-02T07:14:20;99608.63;;;18.75;100.00
16194;BME280;8204;53.582;10.080;2023-07-02T07:16:45;99624.88;;;18.78;100.00
16194;BME280;8204;53.582;10.080;2023-07-02T07:19:11;99658.34;;;18.79;100.00
16194;BME280;8204;53.582;10.080;2023-07-02T07:21:36;99651.28;;;18.85;100.00
16194;BME280;8204;53.582;10.080;2023-07-02T07:24:01;99661.53;;;18.93;100.00
16194;BME280;8204;53.582;10.080;2023-07-02T07:26:27;99690.03;;;18.97;100.00
16194;BME280;8204;53.582;10.080;2023-07-02T07:28:53;99708.03;;;18.95;100.00
16194;BME280;8204;53.582;10.080;2023-07-02T07:31:21;99755.75;;;18.90;100.00
16194;BME280;8204;53.582;10.080;2023-07-02T07:33:47;99747.28;;;18.93;100.00
16194;BME280;8204;53.582;10.080;2023-07-02T07:36:12;99628.09;;;18.80;100.00
16194;BME280;8204;53.582;10.080;2023-07-02T07:38:37;99627.59;;;18.67;100.00
16194;BME280;8204;53.582;10.080;2023-07-02T07:41:03;99634.78;;;18.55;100.00
16194;BME280;8204;53.582;10.080;2023-07-02T07:43:28;99583.25;;;18.51;100.00
16194;BME280;8204;53.582;10.080;2023-07-02T07:45:54;99618.34;;;18.41;100.00
16194;BME280;8204;53.582;10.080;2023-07-02T07:48:20;99616.47;;;18.42;100.00
16194;BME280;8204;53.582;10.080;2023-07-02T07:50:46;99648.09;;;18.43;100.00
16194;BME280;8204;53.582;10.080;2023-07-02T07:53:12;99703.81;;;18.43;100.00
16194;BME280;8204;53.582;10.080;2023-07-02T07:55:38;99715.66;;;18.52;100.00
16194;BME280;8204;53.582;10.080;2023-07-02T07:58:03;99741.75;;;18.55;100.00
16194;BME280;8204;53.582;10.080;2023-07-02T08:00:28;99856.66;;;18.44;100.00
16194;BME280;8204;53.582;10.080;2023-07-02T08:02:54;99884.31;;;18.48;100.00
16194;BME280;8204;53.582;10.080;2023-07-02T08:05:21;99854.47;;;18.53;100.00
16194;BME280;8204;53.582;10.080;2023-07-02T08:07:46;99871.88;;;18.60;100.00
16194;BME280;8204;53.582;10.080;2023-07-02T08:10:12;99852.34;;;18.55;100.00
16194;BME280;8204;53.582;10.080;2023-07-02T08:12:38;99870.94;;;18.66;100.00
16194;BME280;8204;53.582;10.080;2023-07-02T08:15:03;99863.91;;;18.72;100.00
16194;BME280;8204;53.582;10.080;2023-07-02T08:17:29;99886.41;;;18.81;100.00
16194;BME280;8204;53.582;10.080;2023-07-02T08:19:56;99920.09;;;18.92;100.00
16194;BME280;8204;53.582;10.080;2023-07-02T08:22:21;99969.63;;;18.98;100.00
16194;BME280;8204;53.582;10.080;2023-07-02T08:24:47;100015.00;;;19.07;100.00
16194;BME280;8204;53.582;10.080;2023-07-02T08:27:15;100058.47;;;19.13;100.00
16194;BME280;8204;53.582;10.080;2023-07-02T08:29:42;100067.56;;;19.17;100.00
16194;BME280;8204;53.582;10.080;2023-07-02T08:32:08;100059.41;;;19.18;100.00
16194;BME280;8204;53.582;10.080;2023-07-02T08:34:33;100090.59;;;19.23;100.00
16194;BME280;8204;53.582;10.080;2023-07-02T08:36:59;100080.41;;;19.20;100.00
16194;BME280;8204;53.582;10.080;2023-07-02T08:39:24;100102.03;;;19.23;100.00
16194;BME280;8204;53.582;10.080;2023-07-02T08:41:50;100116.69;;;19.26;100.00
16194;BME280;8204;53.582;10.080;2023-07-02T08:44:20;100101.44;;;19.33;100.00
16194;BME280;8204;53.582;10.080;2023-07-02T08:46:46;100117.75;;;19.36;100.00
16194;BME280;8204;53.582;10.080;2023-07-02T08:49:17;100138.19;;;19.36;100.00
16194;BME280;8204;53.582;10.080;2023-07-02T08:51:46;100141.22;;;19.39;100.00
16194;BME280;8204;53.582;10.080;2023-07-02T08:54:13;100135.06;;;19.39;100.00
16194;BME280;8204;53.582;10.080;2023-07-02T08:56:39;100124.69;;;19.37;100.00
16194;BME280;8204;53.582;10.080;2023-07-02T08:59:08;100126.66;;;19.42;100.00
16194;BME280;8204;53.582;10.080;2023-07-02T09:01:51;100126.75;;;19.47;100.00
16194;BME280;8204;53.582;10.080;2023-07-02T09:04:24;100137.50;;;19.52;100.00
16194;BME280;8204;53.582;10.080;2023-07-02T09:07:16;100157.75;;;19.64;100.00
16194;BME280;8204;53.582;10.080;2023-07-02T09:09:48;100159.94;;;19.67;100.00
16194;BME280;8204;53.582;10.080;2023-07-02T09:12:29;100160.06;;;19.72;100.00
16194;BME280;8204;53.582;10.080;2023-07-02T09:15:03;100164.81;;;19.81;100.00
16194;BME280;8204;53.582;10.080;2023-07-02T09:17:32;100204.91;;;19.91;100.00
16194;BME280;8204;53.582;10.080;2023-07-02T09:20:01;100170.00;;;19.88;100.00
16194;BME280;8204;53.582;10.080;2023-07-02T09:22:28;100199.59;;;19.91;100.00
16194;BME280;8204;53.582;10.080;2023-07-02T09:24:55;100185.50;;;19.79;100.00
16194;BME280;8204;53.582;10.080;2023-07-02T09:27:42;100227.72;;;19.87;100.00
16194;BME280;8204;53.582;10.080;2023-07-02T09:30:11;100227.22;;;19.68;100.00
16194;BME280;8204;53.582;10.080;2023-07-02T09:32:39;100250.16;;;19.51;100.00
16194;BME280;8204;53.582;10.080;2023-07-02T09:35:05;100020.00;;;19.38;100.00
16194;BME280;8204;53.582;10.080;2023-07-02T09:37:31;99990.19;;;18.91;100.00
16194;BME280;8204;53.582;10.080;2023-07-02T09:39:57;99990.84;;;18.63;100.00
16194;BME280;8204;53.582;10.080;2023-07-02T09:42:25;99913.28;;;18.38;100.00
16194;BME280;8204;53.582;10.080;2023-07-02T09:44:58;99870.00;;;18.27;100.00
16194;BME280;8204;53.582;10.080;2023-07-02T09:47:24;99834.22;;;18.18;100.00
16194;BME280;8204;53.582;10.080;2023-07-02T09:50:03;99892.66;;;18.11;100.00
16194;BME280;8204;53.582;10.080;2023-07-02T09:52:31;99856.91;;;18.02;100.00
16194;BME280;8204;53.582;10.080;2023-07-02T09:54:58;99839.38;;;18.01;100.00
16194;BME280;8204;53.582;10.080;2023-07-02T09:57:24;99871.56;;;18.05;100.00
16194;BME280;8204;53.582;10.080;2023-07-02T09:59:50;99933.69;;;18.09;100.00
16194;BME280;8204;53.582;10.080;2023-07-02T10:02:16;99994.97;;;18.19;100.00
16194;BME280;8204;53.582;10.080;2023-07-02T10:04:46;99994.09;;;18.25;100.00
16194;BME280;8204;53.582;10.080;2023-07-02T10:07:13;100130.59;;;18.40;100.00
16194;BME280;8204;53.582;10.080;2023-07-02T10:09:50;100180.38;;;18.56;100.00
16194;BME280;8204;53.582;10.080;2023-07-02T10:12:23;100199.31;;;18.59;100.00
16194;BME280;8204;53.582;10.080;2023-07-02T10:14:53;100183.47;;;18.71;100.00
16194;BME280;8204;53.582;10.080;2023-07-02T10:17:30;100184.97;;;18.78;100.00
16194;BME280;8204;53.582;10.080;2023-07-02T10:20:00;100209.59;;;18.85;100.00
16194;BME280;8204;53.582;10.080;2023-07-02T10:22:26;100171.13;;;19.05;100.00
16194;BME280;8204;53.582;10.080;2023-07-02T10:24:53;100188.75;;;19.18;100.00
16194;BME280;8204;53.582;10.080;2023-07-02T10:27:20;100184.50;;;19.28;100.00
16194;BME280;8204;53.582;10.080;2023-07-02T10:29:49;100191.00;;;19.44;100.00
16194;BME280;8204;53.582;10.080;2023-07-02T10:32:26;100178.75;;;19.54;100.00
16194;BME280;8204;53.582;10.080;2023-07-02T10:34:52;100195.31;;;19.68;100.00
16194;BME280;8204;53.582;10.080;2023-07-02T10:37:17;100195.88;;;19.70;100.00
16194;BME280;8204;53.582;10.080;2023-07-02T10:39:42;100199.38;;;19.81;100.00
16194;BME280;8204;53.582;10.080;2023-07-02T10:42:09;100218.69;;;19.88;100.00
16194;BME280;8204;53.582;10.080;2023-07-02T10:44:46;100230.09;;;19.77;100.00
16194;BME280;8204;53.582;10.080;2023-07-02T10:47:12;100209.66;;;19.67;100.00
16194;BME280;8204;53.582;10.080;2023-07-02T10:49:37;100231.81;;;19.61;100.00
16194;BME280;8204;53.582;10.080;2023-07-02T10:52:03;100228.91;;;19.51;100.00
16194;BME280;8204;53.582;10.080;2023-07-02T10:54:46;100213.75;;;19.40;100.00
16194;BME280;8204;53.582;10.080;2023-07-02T10:57:17;100217.09;;;19.35;100.00
16194;BME280;8204;53.582;10.080;2023-07-02T10:59:46;100216.50;;;19.33;100.00
16194;BME280;8204;53.582;10.080;2023-07-02T11:02:12;100223.22;;;19.36;100.00
16194;BME280;8204;53.582;10.080;2023-07-02T11:04:37;100230.34;;;19.24;100.00
16194;BME280;8204;53.582;10.080;2023-07-02T11:07:03;100214.16;;;19.14;100.00
16194;BME280;8204;53.582;10.080;2023-07-02T11:09:29;100221.91;;;18.98;100.00
16194;BME280;8204;53.582;10.080;2023-07-02T11:11:59;100205.16;;;18.97;100.00
16194;BME280;8204;53.582;10.080;2023-07-02T11:16:57;100209.50;;;19.09;100.00
16194;BME280;8204;53.582;10.080;2023-07-02T11:19:22;100213.59;;;19.23;100.00
16194;BME280;8204;53.582;10.080;2023-07-02T11:21:52;100222.88;;;19.32;100.00
16194;BME280;8204;53.582;10.080;2023-07-02T11:24:27;100230.19;;;19.48;100.00
16194;BME280;8204;53.582;10.080;2023-07-02T11:26:53;100234.59;;;19.66;100.00
16194;BME280;8204;53.582;10.080;2023-07-02T11:29:19;100224.34;;;19.80;100.00
16194;BME280;8204;53.582;10.080;2023-07-02T11:31:44;100220.47;;;19.94;100.00
16194;BME280;8204;53.582;10.080;2023-07-02T11:34:14;100229.69;;;20.03;100.00
16194;BME280;8204;53.582;10.080;2023-07-02T11:36:40;100241.47;;;20.19;100.00
16194;BME280;8204;53.582;10.080;2023-07-02T11:39:06;100251.53;;;20.28;100.00
16194;BME280;8204;53.582;10.080;2023-07-02T11:41:41;100243.56;;;20.40;100.00
16194;BME280;8204;53.582;10.080;2023-07-02T11:44:07;100268.09;;;20.53;100.00
16194;BME280;8204;53.582;10.080;2023-07-02T11:46:33;100254.72;;;20.64;100.00
16194;BME280;8204;53.582;10.080;2023-07-02T11:49:03;100252.06;;;20.76;100.00
16194;BME280;8204;53.582;10.080;2023-07-02T11:51:30;100238.72;;;20.87;100.00
16194;BME280;8204;53.582;10.080;2023-07-02T11:53:56;100244.25;;;20.97;100.00
16194;BME280;8204;53.582;10.080;2023-07-02T11:56:21;100248.75;;;21.08;100.00
16194;BME280;8204;53.582;10.080;2023-07-02T11:58:46;100242.66;;;21.13;100.00
16194;BME280;8204;53.582;10.080;2023-07-02T12:01:12;100255.28;;;21.17;100.00
16194;BME280;8204;53.582;10.080;2023-07-02T12:03:37;100256.50;;;21.10;100.00
16194;BME280;8204;53.582;10.080;2023-07-02T12:06:02;100262.16;;;21.13;100.00
16194;BME280;8204;53.582;10.080;2023-07-02T12:08:28;100281.06;;;21.12;100.00
16194;BME280;8204;53.582;10.080;2023-07-02T12:10:53;100290.22;;;21.04;100.00
16194;BME280;8204;53.582;10.080;2023-07-02T12:13:18;100281.78;;;20.96;100.00
16194;BME280;8204;53.582;10.080;2023-07-02T12:15:46;100290.47;;;20.91;100.00
16194;BME280;8204;53.582;10.080;2023-07-02T12:18:12;100312.50;;;20.87;100.00
16194;BME280;8204;53.582;10.080;2023-07-02T12:20:39;100307.28;;;20.92;100.00
16194;BME280;8204;53.582;10.080;2023-07-02T12:23:05;100295.53;;;21.04;100.00
16194;BME280;8204;53.582;10.080;2023-07-02T12:25:31;100305.81;;;21.12;100.00
16194;BME280;8204;53.582;10.080;2023-07-02T12:27:57;100295.38;;;21.22;100.00
16194;BME280;8204;53.582;10.080;2023-07-02T12:30:22;100282.69;;;21.29;100.00
16194;BME280;8204;53.582;10.080;2023-07-02T12:32:48;100277.06;;;21.42;100.00
16194;BME280;8204;53.582;10.080;2023-07-02T12:35:14;100285.63;;;21.55;100.00
16194;BME280;8204;53.582;10.080;2023-07-02T12:37:47;100291.13;;;21.65;100.00
16194;BME280;8204;53.582;10.080;2023-07-02T12:40:13;100286.94;;;21.69;100.00
16194;BME280;8204;53.582;10.080;2023-07-02T12:42:41;100289.09;;;21.72;100.00
16194;BME280;8204;53.582;10.080;2023-07-02T12:45:07;100299.78;;;21.72;100.00
16194;BME280;8204;53.582;10.080;2023-07-02T12:47:33;100299.22;;;21.70;100.00
16194;BME280;8204;53.582;10.080;2023-07-02T12:49:58;100301.00;;;21.81;100.00